Latest Weather Observations for King Island Airport

IDT60801

Issued at 7:03 pm EDT Tuesday 27 January 2015 (issued every 30 minutes, with the page automatically refreshed every 10 minutes)

About weather observations | Map of weather stations | Latest weather observations for TAS | Other Formats
Station Details ID: 098017 Name: KING ISLAND AIRPORT Lat: -39.88 Lon: 143.88 Height: 37.0 m
Data from the previous 72 hours. | See also: Recent months at King Island Airport
Date/Time
EDT
Temp
°C
App
Temp
°C
Dew
Point
Rel
Hum
%
Delta-T
°C
Wind Press
QNH
hPa
Press
MSL
hPa
Rain
since 9 am
mm
Dir
 
Spd
km/h
Gust
km/h
Spd
kts
Gust
kts
27/07:00pm 15.6 10.3 8.4 62 3.6 SSW 26 37 14 20 1018.8 1018.7 0.0
27/06:37pm 15.6 9.9 8.4 62 3.6 S 28 46 15 25 1018.7 1018.6 0.0
27/06:30pm 15.5 10.0 9.0 65 3.3 SSW 28 41 15 22 1018.7 1018.6 0.0
27/06:00pm 16.1 10.1 8.8 62 3.7 SSW 30 41 16 22 1018.6 1018.5 0.0
27/05:30pm 16.9 10.6 8.8 59 4.2 SSW 32 41 17 22 1018.7 1018.6 0.0
27/05:00pm 16.0 10.1 9.2 64 3.5 SSW 30 39 16 21 1018.7 1018.6 0.0
27/04:30pm 16.5 10.5 6.9 53 4.7 SSW 28 37 15 20 1018.8 1018.7 0.0
27/04:00pm 16.7 10.1 7.6 55 4.6 SSW 32 44 17 24 1018.9 1018.8 0.0
27/03:30pm 17.4 11.6 8.0 54 4.8 SSW 28 41 15 22 1018.9 1018.8 0.0
27/03:00pm 16.9 10.8 8.1 56 4.5 SSW 30 39 16 21 1019.0 1018.9 0.0
27/02:30pm 16.5 11.4 7.7 56 4.4 SSW 24 35 13 19 1019.0 1018.9 0.0
27/02:00pm 16.0 11.0 8.2 60 3.9 SSW 24 33 13 18 1019.2 1019.1 0.0
27/01:30pm 13.5 9.6 9.4 76 2.1 SSW 20 28 11 15 1019.5 1019.4 0.0
27/01:00pm 14.2 8.7 9.2 72 2.5 SSW 28 41 15 22 1019.5 1019.4 0.0
27/12:30pm 16.5 11.2 6.9 53 4.7 SW 24 33 13 18 1019.4 1019.3 0.0
27/12:00pm 17.2 12.8 6.7 50 5.2 SSW 19 28 10 15 1019.4 1019.3 0.0
27/11:30am 15.9 11.0 6.9 55 4.4 SSW 22 33 12 18 1019.5 1019.4 0.0
27/11:00am 16.7 12.2 6.8 52 4.9 SSW 20 32 11 17 1019.4 1019.3 0.0
27/10:30am 15.9 11.0 4.9 48 5.2 SSW 20 28 11 15 1019.2 1019.1 0.0
27/10:00am 15.2 10.3 4.9 50 4.8 SSW 20 32 11 17 1019.3 1019.2 0.0
27/09:30am 14.3 11.7 7.8 65 3.2 S 11 19 6 10 1019.3 1019.2 0.0
27/09:00am 14.0 12.1 9.2 73 2.4 SSE 9 13 5 7 1019.1 1019.1 0.0
27/08:30am 13.3 12.0 9.9 80 1.8 SSE 7 11 4 6 1019.0 1018.9 0.0
27/08:00am 12.5 10.8 10.0 85 1.3 SSE 9 11 5 6 1018.6 1018.5 0.0
27/07:30am 10.6 9.2 9.5 93 0.6 SE 7 9 4 5 1018.3 1018.2 0.0
27/07:00am 10.7 9.4 9.1 90 0.8 SSW 6 9 3 5 1018.1 1018.0 0.0
27/06:30am 9.2 8.8 8.1 93 0.5 CALM 0 0 0 0 1017.9 1017.8 0.0
27/06:00am 8.1 7.5 7.3 95 0.4 CALM 0 0 0 0 1017.7 1017.7 0.0
27/05:30am 7.2 6.4 6.5 95 0.3 CALM 0 0 0 0 1017.6 1017.5 0.0
27/05:00am 6.5 5.5 5.6 94 0.4 CALM 0 0 0 0 1017.6 1017.5 0.0
27/04:30am 6.4 5.4 5.4 93 0.4 CALM 0 0 0 0 1017.8 1017.7 0.0
27/04:00am 7.6 6.8 6.5 93 0.5 CALM 0 0 0 0 1017.8 1017.7 0.0
27/03:30am 6.7 5.3 5.7 93 0.4 ESE 2 9 1 5 1018.1 1018.0 0.0
27/03:00am 6.9 5.9 5.8 93 0.5 CALM 0 0 0 0 1018.1 1018.0 0.0
27/02:30am 7.4 6.1 6.0 91 0.6 ESE 2 6 1 3 1018.3 1018.2 0.0
27/02:00am 7.7 5.7 6.2 90 0.7 ESE 6 9 3 5 1018.4 1018.3 0.0
27/01:30am 8.2 6.1 6.5 89 0.8 ESE 7 7 4 4 1018.4 1018.3 0.0
27/01:00am 8.5 6.6 6.6 88 0.9 ESE 6 7 3 4 1018.7 1018.6 0.0
27/12:30am 9.4 7.6 7.0 85 1.1 ESE 6 7 3 4 1018.7 1018.6 0.0
27/12:00am 9.2 8.6 7.2 87 0.9 CALM 0 0 0 0 1018.7 1018.6 0.0
 
Date/Time
EDT
Temp
°C
App
Temp
°C
Dew
Point
Rel
Hum
%
Delta-T
°C
Wind Press
QNH
hPa
Press
MSL
hPa
Rain
since 9 am
mm
Dir
 
Spd
km/h
Gust
km/h
Spd
kts
Gust
kts
26/11:30pm 9.3 8.5 6.7 84 1.2 CALM 0 0 0 0 1019.0 1018.9 0.0
26/11:00pm 9.6 8.9 6.9 83 1.3 CALM 0 0 0 0 1019.1 1019.0 0.0
26/10:30pm 10.7 9.2 6.8 77 1.8 ESE 4 7 2 4 1019.1 1019.0 0.0
26/10:00pm 12.3 10.4 6.8 69 2.6 S 6 7 3 4 1019.1 1019.0 0.0
26/09:30pm 12.1 10.0 6.8 70 2.5 S 7 9 4 5 1018.9 1018.8 0.0
26/09:00pm 12.6 10.5 6.6 67 2.9 S 7 9 4 5 1018.6 1018.5 0.0
26/08:30pm 13.9 10.6 6.5 61 3.6 SSW 13 15 7 8 1018.4 1018.3 0.0
26/08:00pm 14.6 10.9 6.2 57 4.0 SW 15 19 8 10 1018.2 1018.1 0.0
26/07:30pm 15.1 11.0 6.4 56 4.2 SW 17 24 9 13 1017.9 1017.8 0.0
26/07:00pm 15.5 11.4 6.2 54 4.5 SSW 17 26 9 14 1017.7 1017.6 0.0
26/06:30pm 15.4 10.9 6.1 54 4.5 SSW 19 26 10 14 1017.5 1017.4 0.0
26/06:00pm 15.8 11.7 6.0 52 4.7 SW 17 30 9 16 1017.5 1017.4 0.0
26/05:30pm 15.6 11.0 6.3 54 4.5 SSW 20 32 11 17 1017.6 1017.5 0.0
26/05:00pm 16.2 11.8 7.4 56 4.4 SW 20 32 11 17 1017.6 1017.5 0.0
26/04:30pm 15.7 11.2 7.0 56 4.3 SW 20 32 11 17 1017.6 1017.5 0.0
26/04:00pm 16.5 12.2 8.0 57 4.3 SW 20 30 11 16 1017.7 1017.6 0.0
26/03:30pm 16.0 11.1 7.0 55 4.4 SW 22 32 12 17 1017.7 1017.6 0.0
26/03:00pm 16.0 11.4 6.4 53 4.7 SW 20 30 11 16 1017.8 1017.7 0.0
26/02:30pm 15.7 10.3 6.4 54 4.5 SW 24 33 13 18 1017.8 1017.7 0.0
26/02:00pm 16.6 11.7 7.0 53 4.8 SW 22 32 12 17 1017.8 1017.7 0.0
26/01:30pm 15.7 11.3 7.5 58 4.1 SSW 20 32 11 17 1017.8 1017.7 0.0
26/01:00pm 16.4 12.6 7.6 56 4.4 SW 17 30 9 16 1017.9 1017.8 0.0
26/12:30pm 15.5 11.0 7.0 57 4.2 SW 20 28 11 15 1018.0 1017.9 0.0
26/12:00pm 15.8 11.4 6.5 54 4.5 SW 19 28 10 15 1017.9 1017.8 0.0
26/11:30am 15.4 11.0 6.4 55 4.4 SW 19 28 10 15 1017.9 1017.8 0.0
26/11:00am 16.3 12.4 7.3 55 4.5 SW 17 26 9 14 1017.8 1017.7 0.0
26/10:30am 15.5 11.1 6.5 55 4.4 SW 19 28 10 15 1017.6 1017.5 0.0
26/10:00am 14.9 10.4 6.0 55 4.3 SW 19 30 10 16 1017.5 1017.4 0.0
26/09:30am 14.4 9.8 5.7 56 4.1 SW 19 28 10 15 1017.2 1017.1 0.0
26/09:00am 14.8 10.1 6.1 56 4.2 SSW 20 28 11 15 1016.9 1016.8 1.0
26/08:30am 14.6 10.3 7.2 61 3.6 SW 19 26 10 14 1016.6 1016.5 1.0
26/08:00am 14.0 9.8 7.5 65 3.2 SSW 19 28 10 15 1016.2 1016.1 1.0
26/07:30am 12.8 9.6 8.3 74 2.2 SSW 15 19 8 10 1015.8 1015.7 1.0
26/07:00am 12.2 9.1 7.3 72 2.4 SW 13 15 7 8 1015.3 1015.2 1.0
26/06:30am 11.4 8.3 7.1 75 2.1 SSW 13 19 7 10 1014.9 1014.8 1.0
26/06:00am 11.4 7.7 7.9 79 1.7 SSW 17 20 9 11 1014.5 1014.4 1.0
26/05:30am 12.2 8.3 6.9 70 2.5 SW 17 26 9 14 1014.2 1014.1 0.8
26/05:00am 11.9 8.2 6.4 69 2.6 SW 15 19 8 10 1013.9 1013.8 0.8
26/04:30am 12.2 9.2 7.9 75 2.1 SW 13 19 7 10 1013.6 1013.5 0.8
26/04:00am 12.1 9.4 8.9 81 1.6 WSW 13 17 7 9 1013.4 1013.3 0.6
26/03:30am 11.8 8.7 8.8 82 1.5 W 15 20 8 11 1013.4 1013.3 0.6
26/03:00am 12.1 9.2 8.2 77 1.9 WSW 13 24 7 13 1013.2 1013.1 0.2
26/02:30am 13.2 9.4 7.4 68 2.8 SW 17 28 9 15 1013.1 1013.0 0.0
26/02:00am 13.0 8.3 5.9 62 3.4 WSW 20 28 11 15 1012.8 1012.7 0.0
26/01:30am 13.4 8.8 6.5 63 3.3 WSW 20 30 11 16 1012.7 1012.6 0.0
26/01:00am 12.8 8.6 5.7 62 3.3 SW 17 22 9 12 1012.6 1012.5 0.0
26/12:30am 13.0 8.3 6.1 63 3.3 SW 20 30 11 16 1012.6 1012.5 0.0
26/12:00am 13.3 8.0 6.6 64 3.2 SW 24 33 13 18 1012.4 1012.3 0.0
 
Date/Time
EDT
Temp
°C
App
Temp
°C
Dew
Point
Rel
Hum
%
Delta-T
°C
Wind Press
QNH
hPa
Press
MSL
hPa
Rain
since 9 am
mm
Dir
 
Spd
km/h
Gust
km/h
Spd
kts
Gust
kts
25/11:30pm 13.1 7.6 5.8 61 3.4 WSW 24 33 13 18 1012.3 1012.2 0.0
25/11:00pm 13.1 7.9 5.3 59 3.6 WSW 22 30 12 16 1012.3 1012.2 0.0
25/10:30pm 13.3 8.0 6.9 65 3.1 WSW 24 35 13 19 1012.1 1012.0 0.0
25/10:00pm 13.2 6.4 6.8 65 3.1 WSW 32 41 17 22 1011.7 1011.6 0.0
25/09:30pm 13.4 7.0 5.3 58 3.8 WSW 28 39 15 21 1011.5 1011.4 0.0
25/09:00pm 13.3 6.6 5.7 60 3.6 WSW 30 43 16 23 1011.0 1010.9 0.0
25/08:30pm 13.4 5.9 6.3 62 3.4 WSW 35 48 19 26 1010.8 1010.7 0.0
25/08:00pm 14.0 7.1 6.6 61 3.6 W 32 44 17 24 1010.5 1010.4 0.0
25/07:30pm 14.8 8.0 6.9 59 3.9 WSW 32 44 17 24 1010.1 1010.0 0.0
25/07:00pm 15.3 7.9 6.6 56 4.2 WSW 35 50 19 27 1009.8 1009.8 0.0
25/06:30pm 15.3 7.7 5.8 53 4.6 WSW 35 56 19 30 1009.2 1009.2 0.0
25/06:25pm 15.9 8.5 6.9 55 4.4 WSW 35 56 19 30 1009.1 1009.1 0.0
25/06:00pm 15.1 8.2 7.2 59 3.9 W 33 46 18 25 1009.2 1009.2 0.0
25/05:53pm 15.2 8.2 6.7 57 4.2 WSW 33 52 18 28 1009.1 1009.1 0.0
25/05:30pm 15.4 7.4 7.4 59 4.0 WSW 39 54 21 29 1008.9 1008.9 0.0
25/05:00pm 15.8 8.1 7.0 56 4.4 WSW 37 50 20 27 1008.6 1008.6 0.0
25/04:30pm 15.8 8.9 7.3 57 4.2 W 33 44 18 24 1008.5 1008.5 0.0
25/04:00pm 15.7 7.8 7.7 59 4.0 WSW 39 54 21 29 1008.4 1008.4 0.0
25/03:40pm 15.7 7.8 6.2 53 4.6 W 37 56 20 30 1008.2 1008.2 0.0
25/03:30pm 16.1 8.0 7.1 55 4.5 WSW 39 56 21 30 1008.2 1008.2 0.0
25/03:13pm 15.7 7.0 6.2 53 4.6 W 41 59 22 32 1008.0 1008.0 0.0
25/03:00pm 15.8 6.8 6.5 54 4.6 W 43 57 23 31 1008.0 1008.0 0.0
25/02:30pm 16.0 7.5 5.0 48 5.2 W 39 52 21 28 1007.9 1007.9 0.0
25/02:00pm 15.5 7.8 7.3 58 4.1 WSW 37 56 20 30 1007.6 1007.6 0.0
25/01:37pm 14.7 7.1 7.5 62 3.6 W 37 57 20 31 1007.3 1007.3 0.0
25/01:30pm 15.7 8.0 7.2 57 4.2 W 37 50 20 27 1007.3 1007.3 0.0
25/01:12pm 15.7 8.1 7.7 59 4.0 WSW 37 56 20 30 1007.1 1007.1 0.0
25/01:00pm 14.7 7.0 7.3 61 3.7 WSW 37 52 20 28 1007.0 1007.0 0.0
25/12:40pm 15.5 7.2 7.8 60 3.9 W 41 63 22 34 1006.8 1006.8 0.0
25/12:30pm 15.6 7.3 6.1 53 4.6 W 39 52 21 28 1006.6 1006.6 0.0
25/12:14pm 16.3 8.7 5.9 50 5.0 W 35 57 19 31 1006.6 1006.6 0.0
25/12:00pm 15.6 9.1 8.8 64 3.5 W 33 48 18 26 1006.5 1006.5 0.0
25/11:30am 13.4 4.2 8.0 70 2.7 W 46 72 25 39 1006.2 1006.2 0.0
25/11:25am 15.0 6.9 8.5 65 3.3 W 41 72 22 39 1006.0 1006.0 0.0
25/11:12am 15.9 8.9 6.9 55 4.4 W 33 52 18 28 1005.8 1005.8 0.0
25/11:00am 15.4 8.6 7.7 60 3.9 W 33 48 18 26 1005.7 1005.7 0.0
25/10:42am 15.5 8.6 7.3 58 4.1 W 33 52 18 28 1005.6 1005.6 0.0
25/10:30am 15.1 7.8 7.2 59 3.9 W 35 50 19 27 1005.5 1005.5 0.0
25/10:00am 14.7 7.9 7.5 62 3.6 W 33 46 18 25 1005.3 1005.3 0.0
25/09:30am 14.7 7.5 6.0 56 4.2 W 33 48 18 26 1005.1 1005.1 0.0
25/09:08am 14.9 8.0 7.2 60 3.8 W 33 52 18 28 1004.9 1004.9 0.0
25/09:00am 14.9 7.9 6.7 58 4.0 W 33 46 18 25 1004.8 1004.8 6.8
25/08:44am 14.0 6.9 5.6 57 4.0 W 32 50 17 27 1004.7 1004.7 6.8
25/08:30am 14.1 7.8 7.2 63 3.4 W 30 41 16 22 1004.5 1004.5 6.8
25/08:00am 14.1 7.3 6.7 61 3.6 W 32 43 17 23 1004.1 1004.1 6.8
25/07:30am 12.8 6.9 7.3 69 2.7 W 28 41 15 22 1003.9 1003.9 6.8
25/07:00am 13.2 6.5 7.2 67 2.9 W 32 43 17 23 1003.6 1003.6 6.8
25/06:50am 13.3 7.4 7.5 68 2.8 WSW 28 48 15 26 1003.6 1003.6 6.8
25/06:30am 13.3 7.9 8.2 71 2.5 WSW 26 35 14 19 1003.2 1003.2 6.8
25/06:00am 13.0 6.2 6.8 66 3.0 W 32 41 17 22 1002.9 1002.9 6.8
25/05:30am 13.4 7.9 9.1 75 2.2 WSW 28 41 15 22 1002.3 1002.3 6.8
25/05:00am 13.4 7.0 8.5 72 2.5 WSW 32 43 17 23 1002.0 1002.0 6.8
25/04:34am 13.2 8.0 10.2 82 1.6 WSW 28 48 15 26 1002.0 1002.0 6.8
25/04:30am 13.7 9.1 9.6 76 2.1 WSW 24 33 13 18 1001.8 1001.8 6.8
25/04:00am 13.1 8.6 9.9 81 1.7 WSW 24 35 13 19 1001.8 1001.8 6.8
25/03:30am 12.6 7.6 10.8 89 0.9 WSW 28 41 15 22 1001.5 1001.4 6.8
25/03:00am 13.1 9.1 11.8 92 0.7 WSW 24 33 13 18 1002.0 1002.0 6.2
25/02:30am 13.3 10.1 11.9 91 0.8 WSW 20 30 11 16 1002.0 1002.0 4.8
25/02:08am 12.9 10.4 12.4 97 0.3 WSW 17 26 9 14 1001.7 1001.6 4.6
25/02:01am 13.1 10.7 12.6 97 0.3 WSW 17 26 9 14 1001.8 1001.8 4.2
25/02:00am 13.0 10.2 12.5 97 0.3 WSW 19 26 10 14 1001.8 1001.8 4.2
25/01:34am 13.3 11.2 12.5 95 0.4 W 15 19 8 10 1001.9 1001.9 1.4
25/01:30am 13.4 11.0 12.5 94 0.5 W 17 28 9 15 1001.9 1001.9 1.0
25/01:18am 14.5 12.9 13.9 96 0.3 W 15 22 8 12 1001.7 1001.6 0.6
25/01:00am 14.1 11.9 13.3 95 0.4 W 17 26 9 14 1001.9 1001.9 0.2
25/12:30am 14.8 10.2 13.5 92 0.7 W 30 41 16 22 1001.7 1001.6 0.0
25/12:00am 15.6 11.9 13.8 89 1.0 W 26 39 14 21 1001.6 1001.5 0.0
 
Date/Time
EDT
Temp
°C
App
Temp
°C
Dew
Point
Rel
Hum
%
Delta-T
°C
Wind Press
QNH
hPa
Press
MSL
hPa
Rain
since 9 am
mm
Dir
 
Spd
km/h
Gust
km/h
Spd
kts
Gust
kts
24/11:30pm 16.2 11.9 13.3 83 1.6 W 28 41 15 22 1002.3 1002.3 0.0
24/11:00pm 16.4 10.7 12.9 80 2.0 WNW 35 46 19 25 1002.3 1002.3 0.0
24/10:30pm 17.3 12.2 13.6 79 2.1 WNW 33 41 18 22 1002.3 1002.3 0.0
24/10:00pm 17.1 12.2 12.6 75 2.5 NW 30 39 16 21 1002.4 1002.4 0.0
24/09:30pm 16.8 13.1 12.7 77 2.3 NW 24 32 13 17 1002.2 1002.2 0.0
24/09:00pm 16.5 13.8 13.0 80 2.0 NW 19 26 10 14 1002.2 1002.2 0.0
24/08:30pm 16.8 13.8 12.7 77 2.3 NW 20 28 11 15 1002.0 1002.0 0.0
24/08:00pm 17.5 13.4 12.6 73 2.7 NW 26 33 14 18 1002.1 1002.1 0.0
24/07:30pm 18.3 13.9 11.8 66 3.6 NW 26 33 14 18 1001.9 1001.9 0.0

Other Formats:

Comma delimited format used in spreadsheet applications
http://www.bom.gov.au/fwo/IDT60801/IDT60801.94850.axf

JavaScript Object Notation format (JSON) in row-major order
http://www.bom.gov.au/fwo/IDT60801/IDT60801.94850.json